Time;durP1;ratioP1;P1;durP2;ratioP2;P2;SDS_P1;SDS_P2;PMS_P1;PMS_P2;Temp;Humidity;BMP_temperature;BMP_pressure;BME280_temperature;BME280_humidity;BME280_pressure;Samples;Min_cycle;Max_cycle;Signal;HPM_P1;HPM_P2
2022/12/30 00:00:07;;;;;;;9.57;2.10;;;;;;;5.15;100.00;100360.06;687365;28;1364;-64
2022/12/30 00:00:30;;;;;;;10.73;2.30;;;;;;;5.09;100.00;100353.03;687718;28;1277;-64
2022/12/30 00:00:50;;;;;;;11.40;2.60;;;;;;;5.06;100.00;100357.34;686401;28;4430;-64
2022/12/30 00:01:15;;;;;;;9.60;2.43;;;;;;;5.03;100.00;100352.97;685583;28;1339;-65
2022/12/30 00:01:35;;;;;;;10.43;2.20;;;;;;;5.06;100.00;100357.34;685140;28;1537;-65
2022/12/30 00:01:56;;;;;;;7.33;2.10;;;;;;;5.04;100.00;100354.72;686073;28;1647;-65
2022/12/30 00:02:16;;;;;;;7.68;2.45;;;;;;;5.03;100.00;100357.31;688575;28;1639;-65
2022/12/30 00:02:36;;;;;;;9.73;2.80;;;;;;;5.01;100.00;100362.47;688193;28;1934;-64
2022/12/30 00:02:57;;;;;;;8.13;2.00;;;;;;;5.03;100.00;100354.72;685482;28;1285;-65
2022/12/30 00:03:17;;;;;;;9.27;2.00;;;;;;;4.97;100.00;100358.09;687641;28;1348;-65
2022/12/30 00:03:38;;;;;;;8.88;2.05;;;;;;;5.01;100.00;100364.16;687230;28;1358;-64
2022/12/30 00:03:58;;;;;;;8.20;2.13;;;;;;;5.08;100.00;100363.41;686734;28;4682;-64
2022/12/30 00:04:19;;;;;;;8.30;2.08;;;;;;;5.13;100.00;100359.16;687555;28;1199;-64
2022/12/30 00:04:39;;;;;;;8.97;2.23;;;;;;;5.11;100.00;100369.50;687535;28;1507;-65
2022/12/30 00:04:59;;;;;;;10.80;2.20;;;;;;;5.02;100.00;100363.34;687496;28;1323;-64
2022/12/30 00:05:20;;;;;;;11.47;2.37;;;;;;;4.97;100.00;100362.38;687167;28;2341;-65
2022/12/30 00:05:41;;;;;;;10.70;2.80;;;;;;;5.01;100.00;100362.47;685879;28;2706;-64
2022/12/30 00:06:02;;;;;;;8.27;2.00;;;;;;;4.94;100.00;100358.94;684545;28;1269;-65
2022/12/30 00:06:23;;;;;;;9.57;1.92;;;;;;;4.93;100.00;100364.09;685638;28;1340;-65
2022/12/30 00:06:44;;;;;;;11.07;2.33;;;;;;;4.98;100.00;100365.00;684505;28;4344;-64
2022/12/30 00:07:05;;;;;;;10.53;2.30;;;;;;;4.99;100.00;100371.06;685188;28;1096;-64
2022/12/30 00:07:25;;;;;;;10.90;2.17;;;;;;;4.96;100.00;100369.31;680725;29;1263;-64
2022/12/30 00:07:46;;;;;;;10.87;2.10;;;;;;;5.02;100.00;100371.09;679756;28;1394;-64
2022/12/30 00:08:45;;;;;;;9.77;1.92;;;;;;;5.03;100.00;100365.09;682438;28;1416;-65
2022/12/30 00:08:49;;;;;;;8.68;2.28;;;;;;;5.06;100.00;100365.97;683187;28;1605;-64
2022/12/30 00:09:10;;;;;;;10.85;2.30;;;;;;;5.09;100.00;100372.91;683222;28;1262;-64
2022/12/30 00:09:30;;;;;;;9.60;2.00;;;;;;;5.06;100.00;100365.97;687593;28;1459;-65
2022/12/30 00:09:51;;;;;;;7.32;2.10;;;;;;;5.00;100.00;100363.31;687612;28;4477;-65
2022/12/30 00:10:11;;;;;;;8.17;2.10;;;;;;;5.00;100.00;100371.09;688192;28;1378;-65
2022/12/30 00:10:32;;;;;;;8.52;2.30;;;;;;;5.01;100.00;100370.25;688113;28;1432;-65
2022/12/30 00:10:52;;;;;;;8.60;2.17;;;;;;;5.03;100.00;100375.44;687779;28;1326;-64
2022/12/30 00:11:31;;;;;;;8.82;2.20;;;;;;;5.18;100.00;100373.03;688347;28;1230;-63
2022/12/30 00:11:51;;;;;;;7.65;2.25;;;;;;;5.21;100.00;100367.03;688426;28;1719;-64
2022/12/30 00:33:20;;;;;;;10.52;2.15;;;;;;;4.69;100.00;100370.63;684619;28;1261;-66
2022/12/30 00:33:55;;;;;;;9.15;2.10;;;;;;;4.63;100.00;100380.91;685286;28;4727;-66
2022/12/30 00:34:31;;;;;;;10.13;2.20;;;;;;;4.65;100.00;100375.75;685015;28;1498;-66
2022/12/30 00:34:52;;;;;;;9.30;2.35;;;;;;;4.63;100.00;100380.91;685629;28;1559;-66
2022/12/30 00:35:13;;;;;;;9.70;2.30;;;;;;;4.71;100.00;100375.88;685982;28;1504;-66
2022/12/30 00:35:37;;;;;;;8.52;2.00;;;;;;;4.73;100.00;100375.00;685582;28;1551;-66
2022/12/30 00:35:58;;;;;;;10.80;2.33;;;;;;;4.69;100.00;100380.13;685868;28;1419;-66
2022/12/30 00:36:22;;;;;;;12.50;2.33;;;;;;;4.67;100.00;100382.72;686882;28;1922;-66
2022/12/30 00:36:44;;;;;;;10.07;2.17;;;;;;;4.63;100.00;100380.91;684840;28;4416;-65
2022/12/30 00:37:04;;;;;;;8.82;2.25;;;;;;;4.67;100.00;100387.88;687941;28;1296;-66
2022/12/30 00:37:25;;;;;;;9.27;2.27;;;;;;;4.72;100.00;100373.28;688688;28;1329;-66
2022/12/30 00:37:46;;;;;;;10.05;2.22;;;;;;;4.77;100.00;100381.97;687478;28;1444;-66
2022/12/30 00:38:06;;;;;;;10.13;2.22;;;;;;;4.84;100.00;100380.34;687067;28;1163;-66
2022/12/30 00:38:27;;;;;;;8.13;2.03;;;;;;;4.86;100.00;100383.84;687341;28;1306;-65
2022/12/30 00:38:47;;;;;;;9.25;2.08;;;;;;;4.85;100.00;100378.66;686584;28;5015;-66
2022/12/30 00:39:08;;;;;;;10.03;2.20;;;;;;;4.83;100.00;100380.34;687489;28;1397;-65
2022/12/30 00:39:28;;;;;;;9.50;2.13;;;;;;;4.86;100.00;100382.97;687324;28;1226;-66
2022/12/30 00:39:49;;;;;;;8.03;2.00;;;;;;;4.88;100.00;100378.69;687197;28;4449;-66
2022/12/30 00:40:10;;;;;;;9.77;2.08;;;;;;;4.85;100.00;100376.06;686876;28;1232;-65
2022/12/30 00:40:31;;;;;;;10.70;2.33;;;;;;;4.81;100.00;100387.22;687624;28;1294;-66
2022/12/30 00:43:09;;;;;;;9.88;2.00;;;;;;;4.73;100.00;100374.16;687883;28;4315;-66
2022/12/30 00:43:30;;;;;;;8.18;2.10;;;;;;;4.72;100.00;100380.19;683809;28;1799;-65
2022/12/30 00:43:51;;;;;;;9.25;1.90;;;;;;;4.78;100.00;100377.69;684423;28;1176;-66
2022/12/30 00:44:11;;;;;;;9.65;2.05;;;;;;;4.83;100.00;100385.50;683702;28;1164;-65
2022/12/30 00:44:32;;;;;;;10.90;2.30;;;;;;;4.82;100.00;100374.28;684051;28;1390;-66
2022/12/30 00:44:54;;;;;;;9.18;2.25;;;;;;;4.78;100.00;100382.88;683360;28;1781;-65
2022/12/30 00:45:15;;;;;;;8.97;2.20;;;;;;;4.79;100.00;100379.44;684817;28;1234;-65
2022/12/30 00:45:41;;;;;;;7.60;1.90;;;;;;;4.83;100.00;100375.16;686922;28;1306;-66
2022/12/30 00:46:02;;;;;;;9.23;2.20;;;;;;;4.85;100.00;100382.09;686283;28;4801;-65
2022/12/30 00:46:23;;;;;;;11.57;2.13;;;;;;;4.87;100.00;100376.94;688597;28;1269;-66
2022/12/30 00:46:45;;;;;;;12.25;2.13;;;;;;;4.80;100.00;100377.72;687079;28;1461;-66
2022/12/30 00:47:07;;;;;;;9.10;2.20;;;;;;;4.78;100.00;100378.56;687191;28;1656;-65
2022/12/30 00:47:28;;;;;;;7.60;1.90;;;;;;;4.75;100.00;100373.34;687603;28;1382;-66
2022/12/30 00:47:49;;;;;;;8.47;2.20;;;;;;;4.70;100.00;100372.38;684796;28;1436;-66
2022/12/30 00:56:09;;;;;;;11.07;2.38;;;;;;;4.75;100.00;100375.06;687225;28;1307;-66
2022/12/30 00:56:30;;;;;;;8.05;2.08;;;;;;;4.72;100.00;100375.00;684626;28;1352;-66
2022/12/30 00:56:50;;;;;;;10.82;2.58;;;;;;;4.69;100.00;100381.00;685111;28;1437;-66
2022/12/30 00:57:11;;;;;;;10.50;2.10;;;;;;;4.67;100.00;100379.25;685302;28;1439;-66
2022/12/30 00:57:31;;;;;;;10.18;2.10;;;;;;;4.66;100.00;100377.50;682345;28;1444;-65
2022/12/30 00:57:52;;;;;;;11.17;2.10;;;;;;;4.62;100.00;100380.91;682164;28;4319;-66
2022/12/30 00:58:12;;;;;;;10.23;2.35;;;;;;;4.60;100.00;100379.16;681965;28;1535;-66
2022/12/30 00:58:35;;;;;;;11.93;2.40;;;;;;;4.60;100.00;100384.34;684365;28;1609;-65
2022/12/30 00:58:56;;;;;;;9.95;2.20;;;;;;;4.65;100.00;100381.78;683515;28;1318;-66
2022/12/30 00:59:16;;;;;;;9.90;2.20;;;;;;;4.68;100.00;100380.97;685539;28;1616;-65
2022/12/30 00:59:39;;;;;;;10.40;2.30;;;;;;;4.67;100.00;100384.44;688075;28;1350;-65
2022/12/30 01:00:00;;;;;;;9.48;2.15;;;;;;;4.67;100.00;100385.28;687289;28;1196;-66
2022/12/30 01:00:21;;;;;;;8.67;1.90;;;;;;;4.66;100.00;100383.53;688521;28;1406;-66
2022/12/30 01:00:41;;;;;;;9.90;1.90;;;;;;;4.63;100.00;100380.91;686887;28;4715;-65
2022/12/30 01:01:02;;;;;;;8.80;2.10;;;;;;;4.63;100.00;100382.66;688209;28;1293;-66
2022/12/30 01:01:22;;;;;;;11.63;2.40;;;;;;;4.59;100.00;100379.13;687974;28;1570;-66
2022/12/30 01:01:42;;;;;;;11.15;2.25;;;;;;;4.54;100.00;100378.19;687275;28;1341;-65
2022/12/30 01:02:03;;;;;;;10.10;2.10;;;;;;;4.53;100.00;100381.63;688464;28;1426;-65
2022/12/30 01:02:25;;;;;;;11.77;2.33;;;;;;;4.53;100.00;100384.22;687264;28;1395;-65
2022/12/30 01:02:45;;;;;;;11.02;2.30;;;;;;;4.56;100.00;100387.72;688306;28;1322;-65
2022/12/30 01:03:06;;;;;;;8.80;1.90;;;;;;;4.57;100.00;100383.44;687500;28;1220;-65
2022/12/30 01:03:26;;;;;;;10.30;2.03;;;;;;;4.54;100.00;100384.25;688820;28;1253;-66
2022/12/30 01:03:47;;;;;;;11.00;2.10;;;;;;;4.55;100.00;100385.09;686980;28;4553;-66
2022/12/30 01:04:08;;;;;;;9.38;2.13;;;;;;;4.55;100.00;100385.97;687978;28;1358;-65
2022/12/30 01:04:28;;;;;;;10.53;2.10;;;;;;;4.54;100.00;100384.25;685638;28;1379;-66
2022/12/30 01:04:49;;;;;;;11.18;2.28;;;;;;;4.52;100.00;100385.94;684522;28;1452;-65
2022/12/30 01:05:09;;;;;;;7.63;2.10;;;;;;;4.51;100.00;100388.50;684653;28;1286;-66
2022/12/30 01:05:30;;;;;;;9.20;2.35;;;;;;;4.47;100.00;100386.72;684551;28;1387;-65
2022/12/30 01:05:50;;;;;;;9.80;2.33;;;;;;;4.50;100.00;100392.81;682519;28;1770;-66
2022/12/30 01:06:11;;;;;;;9.85;2.20;;;;;;;4.48;100.00;100389.31;686365;28;1515;-66
2022/12/30 01:06:31;;;;;;;12.40;2.53;;;;;;;4.47;100.00;100387.56;687107;28;1384;-66
2022/12/30 01:06:52;;;;;;;8.70;2.20;;;;;;;4.46;100.00;100388.44;685849;28;4489;-66
2022/12/30 01:07:13;;;;;;;11.15;2.00;;;;;;;4.51;100.00;100391.09;681614;28;1085;-66
2022/12/30 01:07:33;;;;;;;10.57;2.30;;;;;;;4.52;100.00;100393.69;682149;28;1529;-66
2022/12/30 01:07:54;;;;;;;10.30;2.20;;;;;;;4.51;100.00;100393.69;684879;28;1586;-66
2022/12/30 01:08:14;;;;;;;8.60;1.92;;;;;;;4.53;100.00;100397.19;685657;28;1278;-66
2022/12/30 01:08:34;;;;;;;8.73;2.00;;;;;;;4.54;100.00;100402.38;685593;28;1287;-65
2022/12/30 01:08:56;;;;;;;9.02;2.00;;;;;;;4.61;100.00;100390.41;688065;28;1393;-66
2022/12/30 01:09:16;;;;;;;9.68;2.00;;;;;;;4.63;100.00;100396.44;687061;28;1857;-65
2022/12/30 01:09:37;;;;;;;10.65;2.10;;;;;;;4.60;100.00;100393.81;686791;28;1826;-66
2022/12/30 01:09:58;;;;;;;8.60;2.00;;;;;;;4.62;100.00;100393.84;686730;28;4435;-66
2022/12/30 01:10:18;;;;;;;9.60;2.10;;;;;;;4.58;100.00;100398.09;688816;28;1485;-66
2022/12/30 01:10:39;;;;;;;12.13;2.13;;;;;;;4.55;100.00;100401.50;687512;28;1164;-66
2022/12/30 01:11:05;;;;;;;11.25;2.08;;;;;;;4.50;100.00;100394.50;689223;28;1334;-66
2022/12/30 01:11:26;;;;;;;9.25;1.90;;;;;;;4.49;100.00;100397.97;688705;28;1419;-66
2022/12/30 01:12:07;;;;;;;9.03;2.00;;;;;;;4.42;100.00;100397.00;688637;28;1432;-65
2022/12/30 01:12:28;;;;;;;9.90;2.10;;;;;;;4.36;100.00;100391.72;688870;28;1329;-66
2022/12/30 01:12:49;;;;;;;10.75;2.35;;;;;;;4.38;100.00;100418.50;686714;28;4462;-66
2022/12/30 01:13:09;;;;;;;9.88;2.25;;;;;;;4.43;100.00;100399.59;682967;28;1322;-66
2022/12/30 01:13:29;;;;;;;7.93;1.90;;;;;;;4.48;100.00;100401.41;682241;28;1796;-66
2022/12/30 01:13:51;;;;;;;9.23;1.90;;;;;;;4.47;100.00;100402.25;681947;28;1304;-66
2022/12/30 01:14:11;;;;;;;8.13;1.85;;;;;;;4.42;100.00;100403.03;681814;28;1310;-66
2022/12/30 01:14:32;;;;;;;8.50;2.07;;;;;;;4.36;100.00;100405.53;682560;28;2003;-66
2022/12/30 01:14:54;;;;;;;8.15;2.25;;;;;;;4.38;100.00;100406.41;683207;28;1745;-65
2022/12/30 01:15:14;;;;;;;8.32;2.05;;;;;;;4.36;100.00;100408.13;687494;28;1587;-66
2022/12/30 01:15:35;;;;;;;10.15;2.20;;;;;;;4.35;100.00;100401.19;684871;28;1495;-66
2022/12/30 01:15:55;;;;;;;8.87;2.00;;;;;;;4.38;100.00;100403.84;682126;28;4329;-66
2022/12/30 01:16:16;;;;;;;9.77;2.17;;;;;;;4.35;100.00;100403.78;684353;28;4295;-66
2022/12/30 01:16:36;;;;;;;10.15;2.17;;;;;;;4.34;100.00;100403.75;685202;28;1538;-66
2022/12/30 01:16:57;;;;;;;9.93;2.30;;;;;;;4.38;100.00;100409.00;682259;28;1485;-66
2022/12/30 01:17:21;;;;;;;9.37;2.10;;;;;;;4.35;100.00;100402.94;683518;28;1486;-66
2022/12/30 01:17:41;;;;;;;10.43;2.00;;;;;;;4.31;100.00;100403.72;686013;28;1419;-66
2022/12/30 01:18:01;;;;;;;9.30;2.13;;;;;;;4.35;100.00;100403.78;684267;28;1258;-65
2022/12/30 01:18:23;;;;;;;9.43;2.13;;;;;;;4.34;100.00;100404.63;684170;28;1259;-66
2022/12/30 01:18:44;;;;;;;9.68;2.25;;;;;;;4.32;100.00;100401.16;685781;28;4421;-66
2022/12/30 01:19:04;;;;;;;8.25;1.88;;;;;;;4.32;100.00;100402.84;686895;28;1324;-66
2022/12/30 01:19:25;;;;;;;10.77;2.22;;;;;;;4.32;100.00;100402.84;687922;28;1248;-65
2022/12/30 01:19:46;;;;;;;12.97;2.40;;;;;;;4.35;100.00;100405.50;687714;28;1369;-66
2022/12/30 01:20:07;;;;;;;10.02;2.30;;;;;;;4.37;100.00;100407.25;688282;28;1334;-66
2022/12/30 01:20:27;;;;;;;6.68;1.90;;;;;;;4.39;100.00;100405.59;688072;28;1318;-66
2022/12/30 01:20:48;;;;;;;8.75;1.95;;;;;;;4.40;100.00;100402.16;687947;28;1461;-66
2022/12/30 01:21:09;;;;;;;9.13;2.07;;;;;;;4.36;100.00;100402.94;687287;28;1316;-65
2022/12/30 01:21:32;;;;;;;9.10;2.00;;;;;;;4.36;100.00;100400.38;688220;28;1174;-66
2022/12/30 01:21:52;;;;;;;8.38;1.92;;;;;;;4.37;100.00;100404.66;687221;28;4554;-66
2022/12/30 01:22:13;;;;;;;10.10;2.40;;;;;;;4.38;100.00;100400.38;687646;28;1255;-66
2022/12/30 01:22:33;;;;;;;10.25;2.28;;;;;;;4.38;100.00;100403.84;688145;28;1302;-66
2022/12/30 01:22:54;;;;;;;9.97;2.50;;;;;;;4.32;100.00;100408.91;688025;28;1688;-66
2022/12/30 01:23:14;;;;;;;8.98;2.40;;;;;;;4.31;100.00;100407.16;686746;28;1461;-65
2022/12/30 01:23:35;;;;;;;8.40;2.50;;;;;;;4.34;100.00;100411.53;686905;28;1337;-66
2022/12/30 01:23:55;;;;;;;8.90;2.20;;;;;;;4.37;100.00;100401.22;687057;28;1361;-66
2022/12/30 01:24:16;;;;;;;9.80;2.17;;;;;;;4.32;100.00;100401.16;688119;28;1132;-66
2022/12/30 01:24:37;;;;;;;8.23;1.95;;;;;;;4.30;100.00;100410.59;687325;28;1612;-66
2022/12/30 01:24:57;;;;;;;11.05;2.20;;;;;;;4.23;100.00;100403.59;686920;28;4773;-66
2022/12/30 01:25:18;;;;;;;12.88;2.40;;;;;;;4.25;100.00;100407.03;686795;28;1210;-66
2022/12/30 01:25:40;;;;;;;7.67;2.00;;;;;;;4.23;100.00;100403.59;686713;28;1432;-66
2022/12/30 01:26:05;;;;;;;9.07;2.10;;;;;;;4.24;100.00;100405.34;687615;28;1463;-65
2022/12/30 01:26:25;;;;;;;7.57;1.80;;;;;;;4.27;100.00;100402.78;687595;28;1294;-66
2022/12/30 01:26:46;;;;;;;8.98;2.50;;;;;;;4.29;100.00;100403.66;688258;28;1335;-66
2022/12/30 01:27:07;;;;;;;9.40;2.80;;;;;;;4.26;100.00;100408.81;688101;28;1280;-66
2022/12/30 01:27:30;;;;;;;10.02;2.45;;;;;;;4.24;100.00;100402.75;688451;28;1518;-66
2022/12/30 01:27:51;;;;;;;10.57;2.20;;;;;;;4.30;100.00;100404.56;688232;28;4379;-66
2022/12/30 01:28:11;;;;;;;9.47;2.13;;;;;;;4.23;100.00;100408.75;686721;28;1526;-66
2022/12/30 01:28:36;;;;;;;12.25;2.83;;;;;;;4.21;100.00;100402.66;688185;28;1314;-65
2022/12/30 01:28:56;;;;;;;10.18;2.42;;;;;;;4.20;100.00;100412.16;687874;28;1848;-66
2022/12/30 01:29:29;;;;;;;10.20;2.30;;;;;;;4.19;100.00;100397.47;687378;28;1619;-66
2022/12/30 01:29:50;;;;;;;9.05;2.20;;;;;;;4.14;100.00;100406.00;686106;28;1355;-66
2022/12/30 01:30:11;;;;;;;9.40;2.25;;;;;;;4.12;100.00;100410.28;684606;28;1528;-66
2022/12/30 01:30:31;;;;;;;11.35;2.40;;;;;;;4.09;100.00;100409.38;685507;28;1549;-66
2022/12/30 01:30:52;;;;;;;11.43;2.20;;;;;;;4.09;100.00;100408.53;684861;28;4384;-66
2022/12/30 01:31:13;;;;;;;9.77;2.20;;;;;;;4.05;100.00;100407.59;683566;28;1277;-66
2022/12/30 01:31:33;;;;;;;10.20;2.70;;;;;;;4.09;100.00;100417.13;683064;28;1390;-68
2022/12/30 01:31:55;;;;;;;10.55;2.42;;;;;;;4.10;100.00;100407.69;686667;28;1563;-66
2022/12/30 01:32:18;;;;;;;10.48;2.30;;;;;;;4.06;100.00;100406.75;686728;28;1885;-66
2022/12/30 01:32:38;;;;;;;11.35;2.45;;;;;;;4.04;100.00;100408.44;685204;28;1299;-65
2022/12/30 01:32:59;;;;;;;10.60;2.07;;;;;;;4.04;100.00;100413.63;682935;28;1317;-66
2022/12/30 01:33:19;;;;;;;11.13;2.27;;;;;;;4.06;100.00;100409.34;685236;28;1273;-66
2022/12/30 01:33:40;;;;;;;8.33;2.00;;;;;;;4.06;100.00;100409.34;688311;28;4319;-66
2022/12/30 01:34:00;;;;;;;9.03;2.47;;;;;;;4.13;100.00;100412.03;684605;28;1168;-66
2022/12/30 01:34:21;;;;;;;10.07;2.70;;;;;;;4.08;100.00;100415.41;685353;28;1338;-66
2022/12/30 01:34:42;;;;;;;11.10;2.40;;;;;;;4.02;100.00;100415.28;684589;28;1974;-66
2022/12/30 01:35:03;;;;;;;12.27;2.60;;;;;;;4.02;100.00;100420.47;685039;28;1155;-66
2022/12/30 01:35:24;;;;;;;10.20;2.30;;;;;;;4.05;100.00;100422.25;684569;28;1306;-66
2022/12/30 01:35:44;;;;;;;10.73;2.60;;;;;;;4.07;100.00;100415.38;686026;28;1359;-66
2022/12/30 01:36:05;;;;;;;9.20;2.53;;;;;;;4.08;100.00;100420.59;687358;28;1671;-66
2022/12/30 01:36:25;;;;;;;9.70;2.45;;;;;;;4.02;100.00;100411.84;687954;28;1361;-66
2022/12/30 01:36:46;;;;;;;10.73;2.63;;;;;;;3.98;100.00;100412.63;687640;28;4587;-66
2022/12/30 01:37:07;;;;;;;15.67;2.60;;;;;;;3.96;100.00;100417.78;688575;28;1347;-65
2022/12/30 01:37:28;;;;;;;13.15;2.65;;;;;;;3.95;100.00;100408.28;688980;28;1680;-66
2022/12/30 01:37:48;;;;;;;9.45;2.35;;;;;;;3.94;100.00;100413.41;688553;28;1356;-66
2022/12/30 01:38:08;;;;;;;10.70;2.40;;;;;;;3.91;100.00;100414.22;688425;28;1139;-66
2022/12/30 01:38:32;;;;;;;10.48;2.58;;;;;;;3.90;100.00;100417.66;686874;28;1297;-66
2022/12/30 01:38:53;;;;;;;9.80;2.40;;;;;;;3.89;100.00;100410.72;687424;28;4933;-65
2022/12/30 01:39:13;;;;;;;11.03;2.30;;;;;;;3.86;100.00;100419.34;688189;28;1449;-66
2022/12/30 01:39:34;;;;;;;9.32;2.30;;;;;;;3.95;100.00;100415.19;687159;28;1294;-65
2022/12/30 01:39:55;;;;;;;8.35;2.35;;;;;;;4.06;100.00;100416.22;686568;28;4752;-65
2022/12/30 01:40:15;;;;;;;10.90;2.40;;;;;;;4.02;100.00;100417.88;687899;28;1254;-66
2022/12/30 01:40:40;;;;;;;11.83;2.30;;;;;;;3.97;100.00;100410.88;687545;28;1401;-66
2022/12/30 01:41:01;;;;;;;8.63;2.40;;;;;;;3.92;100.00;100405.63;689924;28;1323;-66
2022/12/30 01:41:21;;;;;;;8.65;2.38;;;;;;;3.89;100.00;100416.78;690432;28;1275;-65
2022/12/30 01:41:44;;;;;;;10.97;2.40;;;;;;;3.88;100.00;100411.59;687377;28;1271;-66
2022/12/30 01:42:23;;;;;;;10.48;2.47;;;;;;;3.85;100.00;100411.50;687309;28;1797;-66
2022/12/30 01:42:44;;;;;;;9.00;2.15;;;;;;;3.89;100.00;100413.31;686429;28;4302;-66
2022/12/30 01:43:04;;;;;;;9.17;2.30;;;;;;;3.87;100.00;100422.78;685483;28;1387;-66
2022/12/30 01:43:41;;;;;;;9.50;2.60;;;;;;;3.80;100.00;100413.16;687113;28;1329;-65
2022/12/30 01:44:40;;;;;;;11.10;2.42;;;;;;;3.85;100.00;100409.81;684962;28;1313;-66
2022/12/30 01:45:18;;;;;;;7.38;2.30;;;;;;;3.96;100.00;100412.63;685253;28;1940;-65
2022/12/30 01:45:38;;;;;;;10.75;2.45;;;;;;;3.88;100.00;100416.78;685964;28;1803;-66
2022/12/30 01:46:00;;;;;;;8.77;2.47;;;;;;;3.84;100.00;100414.97;687738;28;4296;-66
2022/12/30 01:46:28;;;;;;;9.27;2.70;;;;;;;3.80;100.00;100415.75;687770;28;1141;-66
2022/12/30 01:46:49;;;;;;;9.60;2.30;;;;;;;3.91;100.00;100416.81;687690;28;1296;-65
2022/12/30 01:47:14;;;;;;;9.48;2.35;;;;;;;3.94;100.00;100406.53;686921;28;1125;-66
2022/12/30 01:47:43;;;;;;;8.80;2.55;;;;;;;3.91;100.00;100411.66;686255;28;1842;-66
2022/12/30 01:48:24;;;;;;;9.45;2.58;;;;;;;3.94;100.00;100414.28;687299;28;1167;-66
2022/12/30 01:48:45;;;;;;;8.43;2.30;;;;;;;3.88;100.00;100416.78;687077;28;4419;-66
2022/12/30 01:49:07;;;;;;;10.93;2.22;;;;;;;3.86;100.00;100423.63;687828;28;1294;-66
2022/12/30 01:49:30;;;;;;;10.77;2.33;;;;;;;3.86;100.00;100418.44;687437;28;1352;-66
2022/12/30 01:49:55;;;;;;;8.40;2.10;;;;;;;3.78;100.00;100426.06;688157;28;1248;-66
2022/12/30 01:50:27;;;;;;;8.88;2.33;;;;;;;3.77;100.00;100418.25;687351;28;1261;-65
2022/12/30 01:50:55;;;;;;;11.55;2.83;;;;;;;3.71;100.00;100416.44;687863;28;1265;-65
2022/12/30 01:51:20;;;;;;;10.68;2.45;;;;;;;3.80;100.00;100413.16;687525;28;1431;-65
2022/12/30 01:51:41;;;;;;;7.70;2.33;;;;;;;3.85;100.00;100416.69;686285;28;4687;-65
2022/12/30 01:52:01;;;;;;;8.63;2.22;;;;;;;3.80;100.00;100423.50;687034;28;1187;-66
2022/12/30 01:52:25;;;;;;;8.43;2.33;;;;;;;3.75;100.00;100420.81;687359;28;1924;-66
2022/12/30 01:52:57;;;;;;;9.93;2.38;;;;;;;3.74;100.00;100419.97;687032;28;1417;-66
2022/12/30 01:53:37;;;;;;;8.32;2.10;;;;;;;3.66;100.00;100416.34;688070;28;1203;-65
2022/12/30 01:54:01;;;;;;;9.02;2.13;;;;;;;3.68;100.00;100419.84;684210;28;1709;-66
2022/12/30 01:54:22;;;;;;;10.68;2.42;;;;;;;3.73;100.00;100418.22;682300;28;1302;-65
2022/12/30 01:54:43;;;;;;;9.82;2.60;;;;;;;3.64;100.00;100412.88;680779;28;4368;-66
2022/12/30 01:55:14;;;;;;;9.30;2.50;;;;;;;3.63;100.00;100413.72;681211;28;1212;-66
2022/12/30 01:55:51;;;;;;;9.70;2.50;;;;;;;3.60;100.00;100411.06;684318;28;1975;-66
2022/12/30 01:56:17;;;;;;;8.35;2.13;;;;;;;3.59;100.00;100417.06;684250;28;1454;-66
2022/12/30 01:56:40;;;;;;;7.38;2.22;;;;;;;3.64;100.00;100414.56;684061;28;1777;-66
2022/12/30 01:57:00;;;;;;;6.53;2.15;;;;;;;3.64;100.00;100412.88;684373;28;1250;-66
2022/12/30 01:57:21;;;;;;;9.60;2.43;;;;;;;3.66;100.00;100416.34;684887;28;1253;-66
2022/12/30 01:57:46;;;;;;;8.50;2.05;;;;;;;3.65;100.00;100419.78;684067;28;4817;-66
2022/12/30 01:58:11;;;;;;;9.75;2.40;;;;;;;3.76;100.00;100419.97;687868;28;1435;-65
2022/12/30 01:58:52;;;;;;;11.45;2.83;;;;;;;3.83;100.00;100416.66;687010;28;1567;-66
2022/12/30 01:59:17;;;;;;;10.25;2.65;;;;;;;3.89;100.00;100427.13;686497;28;1400;-65
2022/12/30 01:59:38;;;;;;;9.98;2.60;;;;;;;3.90;100.00;100425.41;684661;28;1203;-65
2022/12/30 02:00:01;;;;;;;12.27;2.67;;;;;;;3.87;100.00;100425.38;683810;28;1200;-66
2022/12/30 02:00:21;;;;;;;10.40;2.40;;;;;;;3.84;100.00;100430.50;683751;28;1199;-66
2022/12/30 02:00:42;;;;;;;11.07;2.40;;;;;;;3.79;100.00;100421.75;683803;28;4469;-65
2022/12/30 02:01:03;;;;;;;9.63;2.37;;;;;;;3.80;100.00;100428.69;685448;28;1270;-66
2022/12/30 02:01:23;;;;;;;8.73;2.30;;;;;;;3.82;100.00;100420.13;687567;28;1196;-66
2022/12/30 02:01:44;;;;;;;11.00;2.80;;;;;;;3.77;100.00;100431.19;684596;28;1595;-65
2022/12/30 02:02:05;;;;;;;15.15;2.95;;;;;;;3.77;100.00;100428.59;685001;28;1206;-66
2022/12/30 02:02:26;;;;;;;9.32;2.38;;;;;;;3.76;100.00;100430.31;685228;28;1642;-66
2022/12/30 02:02:49;;;;;;;8.05;2.38;;;;;;;3.77;100.00;100424.31;686248;28;1312;-65
2022/12/30 02:03:09;;;;;;;11.05;2.50;;;;;;;3.77;100.00;100423.44;683952;28;1164;-66
2022/12/30 02:03:35;;;;;;;11.43;2.90;;;;;;;3.69;100.00;100425.88;686038;28;1566;-66
2022/12/30 02:04:00;;;;;;;10.35;2.60;;;;;;;3.66;100.00;100428.41;686709;28;4376;-66
2022/12/30 02:04:24;;;;;;;9.50;2.22;;;;;;;3.70;100.00;100427.63;686751;28;1416;-65
2022/12/30 02:04:45;;;;;;;10.23;2.30;;;;;;;3.71;100.00;100429.34;688258;28;1242;-66
2022/12/30 02:05:07;;;;;;;11.33;2.20;;;;;;;3.71;100.00;100430.25;686933;28;1226;-65
2022/12/30 02:05:30;;;;;;;12.48;2.60;;;;;;;3.78;100.00;100439.00;687365;28;1323;-66
2022/12/30 02:05:51;;;;;;;9.63;2.50;;;;;;;3.75;100.00;100424.28;688079;28;1455;-65
2022/12/30 02:06:21;;;;;;;9.73;2.47;;;;;;;3.78;100.00;100430.34;686850;28;1441;-66
2022/12/30 02:06:53;;;;;;;10.48;2.47;;;;;;;3.72;100.00;100428.53;685622;28;4337;-66
2022/12/30 02:07:29;;;;;;;11.40;2.80;;;;;;;3.69;100.00;100424.16;685380;28;1683;-66
2022/12/30 02:07:59;;;;;;;11.35;2.60;;;;;;;3.69;100.00;100426.75;686878;28;1586;-66
2022/12/30 02:08:21;;;;;;;9.48;2.42;;;;;;;3.65;100.00;100430.13;684307;28;1538;-66
2022/12/30 02:08:41;;;;;;;10.65;2.33;;;;;;;3.65;100.00;100424.09;687009;28;1292;-66
2022/12/30 02:09:02;;;;;;;10.10;2.30;;;;;;;3.65;100.00;100430.13;687449;28;1455;-66
2022/12/30 02:09:24;;;;;;;9.32;2.30;;;;;;;3.58;100.00;100433.41;684423;28;1832;-66
2022/12/30 02:09:46;;;;;;;11.93;2.88;;;;;;;3.53;100.00;100432.44;683927;28;4447;-65
2022/12/30 02:10:08;;;;;;;10.10;2.60;;;;;;;3.53;100.00;100429.88;684414;28;1498;-66
2022/12/30 02:10:29;;;;;;;10.82;2.60;;;;;;;3.51;100.00;100428.97;685757;28;1337;-65
2022/12/30 02:10:53;;;;;;;9.50;2.78;;;;;;;3.52;100.00;100428.16;685513;28;1457;-66
2022/12/30 02:11:13;;;;;;;9.35;2.55;;;;;;;3.52;100.00;100433.31;686055;28;1398;-65
2022/12/30 02:11:34;;;;;;;9.60;2.15;;;;;;;3.51;100.00;100431.56;688963;28;1296;-65
2022/12/30 02:11:56;;;;;;;10.37;2.30;;;;;;;3.52;100.00;100433.31;690296;28;1702;-66
2022/12/30 02:12:17;;;;;;;9.82;2.35;;;;;;;3.57;100.00;100431.66;687677;28;1392;-65
2022/12/30 02:12:37;;;;;;;7.30;2.13;;;;;;;3.56;100.00;100430.81;687336;28;3598;-66
2022/12/30 02:12:58;;;;;;;9.48;2.35;;;;;;;3.54;100.00;100431.63;687053;28;4574;-66
2022/12/30 02:13:20;;;;;;;10.10;2.28;;;;;;;3.58;100.00;100433.41;688599;28;1362;-66
2022/12/30 02:13:40;;;;;;;9.32;2.30;;;;;;;3.69;100.00;100431.06;688197;28;1234;-65
2022/12/30 02:14:02;;;;;;;8.80;2.20;;;;;;;3.70;100.00;100427.63;686980;28;1422;-66
2022/12/30 02:14:25;;;;;;;7.47;2.00;;;;;;;3.68;100.00;100434.47;687303;28;1370;-66
2022/12/30 02:14:47;;;;;;;11.23;2.42;;;;;;;3.67;100.00;100425.84;687766;28;1911;-66
2022/12/30 02:15:10;;;;;;;10.27;2.53;;;;;;;3.62;100.00;100430.06;687445;28;1373;-66
2022/12/30 02:15:39;;;;;;;8.50;2.50;;;;;;;3.62;100.00;100435.22;687574;28;1799;-66
2022/12/30 02:16:22;;;;;;;8.35;2.20;;;;;;;3.57;100.00;100423.91;687005;28;5002;-65
2022/12/30 02:17:26;;;;;;;8.90;2.17;;;;;;;3.54;100.00;100422.13;687846;28;1277;-65
2022/12/30 02:18:11;;;;;;;10.85;2.63;;;;;;;3.48;100.00;100416.00;677510;29;1386;-66
2022/12/30 02:18:43;;;;;;;10.88;2.10;;;;;;;3.55;100.00;100423.03;687728;28;1394;-65
2022/12/30 02:19:25;;;;;;;9.65;2.17;;;;;;;3.50;100.00;100422.06;687040;28;5809;-66
2022/12/30 02:20:03;;;;;;;10.85;2.58;;;;;;;3.51;100.00;100431.56;687069;28;1349;-66
2022/12/30 02:20:42;;;;;;;9.73;2.42;;;;;;;3.49;100.00;100422.88;687520;28;1298;-66